Terminal Aerodrome Forecast
Issued by NWS

Home | Current Version | Previous Version | Text Only | Print | Product List | Glossary On
Versions: 1 2 3 4 5 6 7 8 9 10 11 12 13 14 15 16 17 18 19 20 21 22 23 24 25 26 27 28 29 30 31 32 33 34 35 36 37 38 39
000
FTUS44 KHGX 201914 AAA
TAFCXO
TAF AMD
KCXO 201914Z 2019/2118 13010KT P6SM VCTS SCT050CB SCT250
      TEMPO 2019/2021 VRB15G30KT 3SM TSRA BKN050CB
     FM210000 15010KT P6SM FEW040 SCT250
     FM210300 17004KT P6SM SKC
     FM211000 VRB02KT 5SM BR FEW008 SCT015
     FM211300 18008KT P6SM SCT020=

USA.gov is the U.S. government's official web portal to all federal, state and local government web resources and services.